createdAt,value
2023-01-11T00:01:57.524Z,8.70
2023-01-11T00:04:30.544Z,9.90
2023-01-11T00:06:57.601Z,11.30
2023-01-11T00:09:24.420Z,12.70
2023-01-11T00:11:51.101Z,13.40
2023-01-11T00:14:17.805Z,10.40
2023-01-11T00:16:44.544Z,12.30
2023-01-11T00:19:11.372Z,10.40
2023-01-11T00:21:38.090Z,9.30
2023-01-11T00:24:05.458Z,8.70
2023-01-11T00:26:32.131Z,8.40
2023-01-11T00:28:58.824Z,9.40
2023-01-11T00:31:25.722Z,8.00
2023-01-11T00:33:52.659Z,8.30
2023-01-11T00:36:19.470Z,8.50
2023-01-11T00:38:53.962Z,7.60
2023-01-11T00:41:40.846Z,8.70
2023-01-11T00:44:28.577Z,7.80
2023-01-11T00:47:14.184Z,8.40
2023-01-11T00:49:41.113Z,7.60
2023-01-11T00:52:09.720Z,8.20
2023-01-11T00:54:41.170Z,8.10
2023-01-11T00:57:08.386Z,8.30
2023-01-11T00:59:35.947Z,7.80
2023-01-11T01:02:03.272Z,8.30
2023-01-11T01:04:30.047Z,9.00
2023-01-11T01:06:56.808Z,8.00
2023-01-11T01:09:23.484Z,8.00
2023-01-11T01:11:50.160Z,7.60
2023-01-11T01:14:26.037Z,7.20
2023-01-11T01:16:53.723Z,7.70
2023-01-11T01:19:21.544Z,8.10
2023-01-11T01:21:49.436Z,8.50
2023-01-11T01:24:16.150Z,8.90
2023-01-11T01:26:42.895Z,8.10
2023-01-11T01:29:09.639Z,7.60
2023-01-11T01:31:36.348Z,7.70
2023-01-11T01:34:03.073Z,8.30
2023-01-11T01:36:29.729Z,8.40
2023-01-11T01:38:56.478Z,8.40
2023-01-11T01:41:23.180Z,7.20
2023-01-11T01:44:04.147Z,7.80
2023-01-11T01:46:32.670Z,7.70
2023-01-11T01:49:13.562Z,8.70
2023-01-11T01:51:43.455Z,8.20
2023-01-11T01:54:12.944Z,8.60
2023-01-11T01:56:48.840Z,7.50
2023-01-11T01:59:15.771Z,8.10
2023-01-11T02:01:49.033Z,7.20
2023-01-11T02:04:24.706Z,7.50
2023-01-11T02:06:54.542Z,8.30
2023-01-11T02:09:43.777Z,7.60
2023-01-11T02:12:10.447Z,7.90
2023-01-11T02:14:37.386Z,7.80
2023-01-11T02:17:04.218Z,8.20
2023-01-11T02:22:01.901Z,7.50
2023-01-11T02:24:43.077Z,8.40
2023-01-11T02:27:28.215Z,8.20
2023-01-11T02:29:54.857Z,8.50
2023-01-11T02:32:35.395Z,12.40
2023-01-11T02:35:25.338Z,11.10
2023-01-11T02:38:24.536Z,10.70
2023-01-11T02:40:56.370Z,13.40
2023-01-11T02:44:01.260Z,9.90
2023-01-11T02:46:35.055Z,13.20
2023-01-11T02:49:20.827Z,15.50
2023-01-11T02:51:55.136Z,12.60
2023-01-11T02:54:22.478Z,12.00
2023-01-11T02:56:51.737Z,12.60
2023-01-11T02:59:20.997Z,14.80
2023-01-11T03:01:49.189Z,11.90
2023-01-11T03:04:29.940Z,13.00
2023-01-11T03:07:09.003Z,10.40
2023-01-11T03:10:01.635Z,9.70
2023-01-11T03:13:02.786Z,8.80
2023-01-11T03:16:08.771Z,8.50
2023-01-11T03:18:38.531Z,9.50
2023-01-11T03:21:08.157Z,10.10
2023-01-11T03:23:40.967Z,9.60
2023-01-11T03:26:19.949Z,9.10
2023-01-11T03:29:00.660Z,8.10
2023-01-11T03:31:48.668Z,7.60
2023-01-11T03:34:40.247Z,9.40
2023-01-11T03:37:27.664Z,8.10
2023-01-11T03:40:11.310Z,7.90
2023-01-11T03:42:58.604Z,8.10
2023-01-11T03:45:25.306Z,8.20
2023-01-11T03:47:52.140Z,8.00
2023-01-11T03:50:19.068Z,8.30
2023-01-11T03:52:45.765Z,8.20
2023-01-11T03:55:12.652Z,8.30
2023-01-11T03:57:42.597Z,7.40
2023-01-11T04:00:10.167Z,8.40
2023-01-11T04:02:39.997Z,8.40
2023-01-11T04:05:08.112Z,8.30
2023-01-11T04:07:35.173Z,8.80
2023-01-11T04:10:02.029Z,8.90
2023-01-11T04:12:28.702Z,10.90
2023-01-11T04:14:55.392Z,11.00
2023-01-11T04:17:22.101Z,10.70
2023-01-11T04:19:48.881Z,10.40
2023-01-11T04:22:15.735Z,9.90
2023-01-11T04:24:42.546Z,9.00
2023-01-11T04:27:09.404Z,11.40
2023-01-11T04:29:36.093Z,11.70
2023-01-11T04:32:03.780Z,8.30
2023-01-11T04:34:30.468Z,8.30
2023-01-11T04:36:57.151Z,7.80
2023-01-11T04:39:24.135Z,8.60
2023-01-11T04:42:09.811Z,7.10
2023-01-11T04:44:36.549Z,7.80
2023-01-11T04:47:03.272Z,9.00
2023-01-11T04:49:30.108Z,9.20
2023-01-11T04:51:56.791Z,8.20
2023-01-11T04:54:23.554Z,8.20
2023-01-11T04:56:50.247Z,9.20
2023-01-11T04:59:16.926Z,8.60
2023-01-11T05:01:43.627Z,8.80
2023-01-11T05:04:12.621Z,9.00
2023-01-11T05:06:40.167Z,8.70
2023-01-11T05:09:09.319Z,8.50
2023-01-11T05:11:36.100Z,8.00
2023-01-11T05:14:02.813Z,7.50
2023-01-11T05:16:29.554Z,9.10
2023-01-11T05:18:57.993Z,8.10
2023-01-11T05:21:29.498Z,8.80
2023-01-11T05:23:56.251Z,8.10
2023-01-11T05:26:24.626Z,10.10
2023-01-11T05:28:51.784Z,8.90
2023-01-11T05:31:19.029Z,8.20
2023-01-11T05:33:46.207Z,8.80
2023-01-11T05:36:14.556Z,8.10
2023-01-11T05:38:41.488Z,8.20
2023-01-11T05:41:09.292Z,7.20
2023-01-11T05:43:56.256Z,7.60
2023-01-11T05:46:23.148Z,7.90
2023-01-11T05:48:50.085Z,7.90
2023-01-11T05:51:16.946Z,8.10
2023-01-11T05:53:43.716Z,7.20
2023-01-11T05:56:10.372Z,8.20
2023-01-11T05:58:37.233Z,7.30
2023-01-11T06:01:04.055Z,8.70
2023-01-11T06:03:30.787Z,7.70
2023-01-11T06:05:58.806Z,8.50
2023-01-11T06:08:25.748Z,9.10
2023-01-11T06:10:56.153Z,9.30
2023-01-11T06:13:26.768Z,9.80
2023-01-11T06:16:01.656Z,9.30
2023-01-11T06:18:29.482Z,9.30
2023-01-11T06:20:56.328Z,9.00
2023-01-11T06:23:23.292Z,9.20
2023-01-11T06:25:50.218Z,9.00
2023-01-11T06:28:17.067Z,9.10
2023-01-11T06:30:43.819Z,8.40
2023-01-11T06:33:10.637Z,8.50
2023-01-11T06:35:41.302Z,8.70
2023-01-11T06:38:09.578Z,8.50
2023-01-11T06:40:36.816Z,8.80
2023-01-11T06:43:03.603Z,8.90
2023-01-11T06:45:30.771Z,9.20
2023-01-11T06:47:57.787Z,9.00
2023-01-11T06:50:24.582Z,8.40
2023-01-11T06:52:58.284Z,8.70
2023-01-11T06:55:25.974Z,8.20
2023-01-11T06:57:53.113Z,8.80
2023-01-11T07:00:20.225Z,9.00
2023-01-11T07:02:47.006Z,10.80
2023-01-11T07:05:13.825Z,11.60
2023-01-11T07:07:40.834Z,18.40
2023-01-11T07:10:09.272Z,22.00
2023-01-11T07:12:36.626Z,14.30
2023-01-11T07:15:05.062Z,12.60
2023-01-11T07:17:31.810Z,12.50
2023-01-11T07:19:58.587Z,11.00
2023-01-11T07:22:25.595Z,10.60
2023-01-11T07:24:52.303Z,9.90
2023-01-11T07:27:21.889Z,9.50
2023-01-11T07:29:48.595Z,9.80
2023-01-11T07:32:15.265Z,10.30
2023-01-11T07:34:41.954Z,10.20
2023-01-11T07:37:28.703Z,9.70
2023-01-11T07:39:56.153Z,9.00
2023-01-11T07:42:41.657Z,10.00
2023-01-11T07:45:08.991Z,8.70
2023-01-11T07:47:35.718Z,10.50
2023-01-11T07:50:02.419Z,10.20
2023-01-11T07:52:29.119Z,9.90
2023-01-11T07:54:55.880Z,10.70
2023-01-11T07:57:37.734Z,10.80
2023-01-11T08:00:05.047Z,11.20
2023-01-11T08:02:38.379Z,10.50
2023-01-11T08:05:05.957Z,10.80
2023-01-11T08:07:32.755Z,10.80
2023-01-11T08:09:59.486Z,10.10
2023-01-11T08:12:44.928Z,10.40
2023-01-11T08:15:14.322Z,9.90
2023-01-11T08:17:41.013Z,11.10
2023-01-11T08:20:09.003Z,11.80
2023-01-11T08:22:35.771Z,12.20
2023-01-11T08:25:02.488Z,12.00
2023-01-11T08:27:29.168Z,15.00
2023-01-11T08:29:55.862Z,13.20
2023-01-11T08:32:22.630Z,13.80
2023-01-11T08:34:49.450Z,13.00
2023-01-11T08:37:16.316Z,11.80
2023-01-11T08:39:43.346Z,11.40
2023-01-11T08:42:10.099Z,12.20
2023-01-11T08:44:36.943Z,13.30
2023-01-11T08:47:03.777Z,14.00
2023-01-11T08:49:30.821Z,13.30
2023-01-11T08:51:57.632Z,14.00
2023-01-11T08:54:25.091Z,15.20
2023-01-11T08:56:52.021Z,14.00
2023-01-11T08:59:20.156Z,14.10
2023-01-11T09:01:47.421Z,14.50
2023-01-11T09:04:24.109Z,15.10
2023-01-11T09:06:52.755Z,14.20
2023-01-11T09:09:19.586Z,13.00
2023-01-11T09:11:56.647Z,12.90
2023-01-11T09:14:25.067Z,12.70
2023-01-11T09:16:52.598Z,14.50
2023-01-11T09:19:19.347Z,12.90
2023-01-11T09:22:04.745Z,11.40
2023-01-11T09:24:31.516Z,13.00
2023-01-11T09:26:59.873Z,15.30
2023-01-11T09:29:27.053Z,17.10
2023-01-11T09:31:54.035Z,18.00
2023-01-11T09:34:21.309Z,15.80
2023-01-11T09:36:49.213Z,15.40
2023-01-11T09:39:19.714Z,14.60
2023-01-11T09:41:51.018Z,14.30
2023-01-11T09:44:21.458Z,13.90
2023-01-11T09:46:51.423Z,14.00
2023-01-11T09:49:25.162Z,15.10
2023-01-11T09:51:52.345Z,16.60
2023-01-11T09:54:23.314Z,17.10
2023-01-11T09:56:54.765Z,14.30
2023-01-11T09:59:44.891Z,15.70
2023-01-11T10:02:23.833Z,14.50
2023-01-11T10:05:19.690Z,14.80
2023-01-11T10:18:28.619Z,15.20
2023-01-11T10:18:29.105Z,13.90
2023-01-11T10:20:12.717Z,13.90
2023-01-11T10:22:43.348Z,13.10
2023-01-11T10:25:18.714Z,13.90
2023-01-11T10:27:55.544Z,12.40
2023-01-11T10:30:37.473Z,14.90
2023-01-11T10:33:14.968Z,15.30
2023-01-11T10:36:30.764Z,13.20
2023-01-11T10:39:20.656Z,13.80
2023-01-11T10:42:05.772Z,14.70
2023-01-11T10:44:47.501Z,13.80
2023-01-11T10:47:30.704Z,15.30
2023-01-11T10:50:00.641Z,13.70
2023-01-11T10:52:32.903Z,11.80
2023-01-11T10:55:03.068Z,14.50
2023-01-11T10:58:02.109Z,15.90
2023-01-11T11:00:37.569Z,16.00
2023-01-11T11:03:12.479Z,17.20
2023-01-11T11:05:58.077Z,14.20
2023-01-11T11:08:30.734Z,14.40
2023-01-11T11:11:13.668Z,13.70
2023-01-11T11:13:43.611Z,13.30
2023-01-11T11:16:25.123Z,15.90
2023-01-11T11:18:53.695Z,14.60
2023-01-11T11:21:31.117Z,14.00
2023-01-11T11:24:08.208Z,13.50
2023-01-11T11:26:41.578Z,15.60
2023-01-11T11:29:10.035Z,15.50
2023-01-11T11:31:38.569Z,13.90
2023-01-11T11:34:13.819Z,18.40
2023-01-11T11:36:42.528Z,16.00
2023-01-11T11:39:11.609Z,15.80
2023-01-11T11:41:56.482Z,14.60
2023-01-11T11:44:24.960Z,15.30
2023-01-11T11:47:06.753Z,15.30
2023-01-11T11:49:34.873Z,14.40
2023-01-11T11:52:02.591Z,16.60
2023-01-11T11:54:38.826Z,17.70
2023-01-11T11:57:16.037Z,17.40
2023-01-11T11:59:50.463Z,17.70
2023-01-11T12:02:30.839Z,17.90
2023-01-11T12:04:58.751Z,18.10
2023-01-11T12:07:34.392Z,16.40
2023-01-11T12:10:06.297Z,14.00
2023-01-11T12:12:34.218Z,13.50
2023-01-11T12:15:05.799Z,14.20
2023-01-11T12:17:32.663Z,13.80
2023-01-11T12:19:59.389Z,12.80
2023-01-11T12:22:28.089Z,15.50
2023-01-11T12:25:21.664Z,13.10
2023-01-11T12:28:38.163Z,14.90
2023-01-11T12:31:15.778Z,17.20
2023-01-11T12:34:13.676Z,18.00
2023-01-11T12:39:33.031Z,14.70
2023-01-11T12:42:24.864Z,18.30
2023-01-11T12:45:17.390Z,15.20
2023-01-11T12:48:08.592Z,15.10
2023-01-11T12:50:59.132Z,15.90
2023-01-11T12:54:00.457Z,15.10
2023-01-11T12:56:54.763Z,14.70
2023-01-11T12:59:33.249Z,14.20
2023-01-11T13:02:18.966Z,16.50
2023-01-11T13:05:13.827Z,13.90
2023-01-11T13:08:03.004Z,11.60
2023-01-11T13:10:45.062Z,12.60
2023-01-11T13:13:34.135Z,13.00
2023-01-11T13:16:14.284Z,15.50
2023-01-11T13:18:48.759Z,15.60
2023-01-11T13:21:26.522Z,16.70
2023-01-11T13:23:58.451Z,16.40
2023-01-11T13:26:29.721Z,16.00
2023-01-11T13:29:11.546Z,15.40
2023-01-11T13:31:39.333Z,16.50
2023-01-11T13:34:23.628Z,17.20
2023-01-11T13:37:02.978Z,17.10
2023-01-11T13:39:38.542Z,16.90
2023-01-11T13:42:12.206Z,16.00
2023-01-11T13:44:46.460Z,16.70
2023-01-11T13:47:23.118Z,15.70
2023-01-11T13:52:38.121Z,13.50
2023-01-11T13:55:11.200Z,14.20
2023-01-11T13:58:04.382Z,15.30
2023-01-11T14:00:52.810Z,15.70
2023-01-11T14:03:22.717Z,15.40
2023-01-11T14:06:14.662Z,14.90
2023-01-11T14:08:44.513Z,13.90
2023-01-11T14:11:53.352Z,13.60
2023-01-11T14:14:55.501Z,13.80
2023-01-11T14:18:00.360Z,15.80
2023-01-11T14:20:36.565Z,15.30
2023-01-11T14:23:20.517Z,15.20
2023-01-11T14:26:13.670Z,14.50
2023-01-11T14:28:59.843Z,12.50
2023-01-11T14:31:29.784Z,10.20
2023-01-11T14:34:27.757Z,11.80
2023-01-11T14:40:16.363Z,13.00
2023-01-11T14:43:06.376Z,13.90
2023-01-11T14:45:52.002Z,13.60
2023-01-11T14:48:40.833Z,16.00
2023-01-11T14:51:32.497Z,15.40
2023-01-11T14:54:07.744Z,15.10
2023-01-11T14:56:44.527Z,13.80
2023-01-11T14:59:30.287Z,12.10
2023-01-11T15:02:03.250Z,13.70
2023-01-11T15:04:36.282Z,13.30
2023-01-11T15:07:22.662Z,14.20
2023-01-11T15:09:50.798Z,17.10
2023-01-11T15:12:38.369Z,16.50
2023-01-11T15:15:06.738Z,18.10
2023-01-11T15:17:52.523Z,16.70
2023-01-11T15:20:20.331Z,16.70
2023-01-11T15:22:49.256Z,14.20
2023-01-11T15:25:26.953Z,13.90
2023-01-11T15:27:53.893Z,14.80
2023-01-11T15:30:29.980Z,15.60
2023-01-11T15:33:19.073Z,17.30
2023-01-11T15:35:55.138Z,19.90
2023-01-11T15:38:25.265Z,17.60
2023-01-11T15:40:54.232Z,18.80
2023-01-11T15:43:30.278Z,17.10
2023-01-11T15:46:54.867Z,15.60
2023-01-11T15:50:08.303Z,15.00
2023-01-11T15:53:10.613Z,15.20
2023-01-11T15:56:18.992Z,13.80
2023-01-11T15:59:23.239Z,17.00
2023-01-11T16:02:13.798Z,17.00
2023-01-11T16:04:41.092Z,17.20
2023-01-11T16:07:18.427Z,17.50
2023-01-11T16:10:03.845Z,19.00
2023-01-11T16:12:49.508Z,17.90
2023-01-11T16:15:49.358Z,17.40
2023-01-11T16:18:28.262Z,16.60
2023-01-11T16:21:03.833Z,15.40
2023-01-11T16:23:31.914Z,13.90
2023-01-11T16:25:58.671Z,15.60
2023-01-11T16:28:26.283Z,17.50
2023-01-11T16:31:01.764Z,16.40
2023-01-11T16:33:30.097Z,17.20
2023-01-11T16:36:07.483Z,17.10
2023-01-11T16:38:50.088Z,16.50
2023-01-11T16:41:16.926Z,21.30
2023-01-11T16:44:13.583Z,16.60
2023-01-11T16:46:46.595Z,15.90
2023-01-11T16:49:17.499Z,16.00
2023-01-11T16:51:45.480Z,16.00
2023-01-11T16:54:14.721Z,16.60
2023-01-11T16:56:46.951Z,15.90
2023-01-11T16:59:13.665Z,16.30
2023-01-11T17:01:49.082Z,17.00
2023-01-11T17:04:49.234Z,16.70
2023-01-11T17:07:23.589Z,17.60
2023-01-11T17:09:50.524Z,18.00
2023-01-11T17:12:22.460Z,18.70
2023-01-11T17:15:11.571Z,16.90
2023-01-11T17:17:38.465Z,19.30
2023-01-11T17:20:13.733Z,18.50
2023-01-11T17:22:40.583Z,20.00
2023-01-11T17:25:12.475Z,20.20
2023-01-11T17:27:45.318Z,21.30
2023-01-11T17:30:22.876Z,21.30
2023-01-11T17:32:53.914Z,21.50
2023-01-11T17:35:22.524Z,19.40
2023-01-11T17:37:53.476Z,20.50
2023-01-11T17:40:25.002Z,19.90
2023-01-11T17:43:10.467Z,22.10
2023-01-11T17:45:37.489Z,20.10
2023-01-11T17:48:13.091Z,19.90
2023-01-11T17:50:51.415Z,20.10
2023-01-11T17:53:22.247Z,19.50
2023-01-11T17:56:00.120Z,18.70
2023-01-11T17:58:36.841Z,19.00
2023-01-11T18:03:59.599Z,18.20
2023-01-11T18:06:50.847Z,19.10
2023-01-11T18:09:22.318Z,18.40
2023-01-11T18:11:50.024Z,19.30
2023-01-11T18:14:27.964Z,23.10
2023-01-11T18:17:07.189Z,27.90
2023-01-11T18:19:42.146Z,20.80
2023-01-11T18:22:29.805Z,21.50
2023-01-11T18:24:57.865Z,22.10
2023-01-11T18:27:26.479Z,22.90
2023-01-11T18:29:54.333Z,20.80
2023-01-11T18:32:22.029Z,20.80
2023-01-11T18:34:52.237Z,21.50
2023-01-11T18:37:19.047Z,20.80
2023-01-11T18:39:46.376Z,21.30
2023-01-11T18:42:16.089Z,20.80
2023-01-11T18:44:45.444Z,18.20
2023-01-11T18:47:15.320Z,17.50
2023-01-11T18:49:42.155Z,16.30
2023-01-11T18:52:08.855Z,16.50
2023-01-11T18:54:35.928Z,17.00
2023-01-11T18:57:02.676Z,18.40
2023-01-11T18:59:29.872Z,18.80
2023-01-11T19:02:15.762Z,16.50
2023-01-11T19:04:43.736Z,15.60
2023-01-11T19:07:10.997Z,17.50
2023-01-11T23:36:51.269Z,11.20
2023-01-11T23:39:20.967Z,11.70
2023-01-11T23:42:06.431Z,13.10
2023-01-11T23:44:33.188Z,12.30
2023-01-11T23:47:18.600Z,12.50
2023-01-11T23:49:45.635Z,11.20
2023-01-11T23:52:12.394Z,11.70
2023-01-11T23:54:39.141Z,12.90
2023-01-11T23:57:06.091Z,11.90
2023-01-11T23:59:32.883Z,11.80
